Airfield :
LOGIN :

Register | Disclaimer

   EN    FR    IT 

 










Legend :    VFR   Marginal VFR   IFR   Intensive IFR   Very Intensive IFR
Visi :
Ceiling :
>= 8 km
>= 3000ft
5 to 8 km
1000 to 3000 ft
1500m to 5 km
500 to 1000 ft
800 to 1500m
200 to 500 ft
< 800m
< 200 ft
Symbols :   Thunderstorms  Fog  Heavy snow  Heavy precipitations  Wind > 20 kt
SIGMETs :     Misc.  Thunderstorms  Icing  Turbulence  Mountain Waves  Volcanic Ashes







- Airport Elevation : 3 ft
- IATA code : LWR


EHLW - Leuuwarden Air Base

CURRENT METAR :
  • 132155Z AUTO 06005KT 010V090 9999 OVC057 00/M01 Q1024 BLU

EXPIRED METARs :
  • 132125Z AUTO 06005KT 020V100 9999 FEW027 OVC056 00/M01 Q1024 BLU
  • 132104Z AUTO 06004KT 030V100 9999 OVC053 00/M01 Q1024 BLU
  • 132055Z AUTO 07004KT 020V110 9999 FEW024 OVC053 00/M01 Q1024 BLU 08007KT CAVOK RMK R05
  • 132025Z AUTO 06004KT 020V100 9999 OVC053 M00/M02 Q1024 BLU 08007KT CAVOK RMK R05
  • 131955Z AUTO 06006KT 020V100 9999 OVC055 M01/M02 Q1024 BLU 08007KT CAVOK RMK R05
  • 131925Z AUTO 07007KT 010V110 9999 FEW059 M01/M02 Q1024 BLU 08007KT CAVOK RMK R05

TAF TAF EHLW
Valid from the 13 at 18:00 until the 14 at 06:00 UTC


131730Z 1318/1406 07007KT CAVOK
BECMG 1319/1321 9999 SCT016 BKN020
PROB40
TEMPO 1321/1406 BKN007 BKN011
No reported NOTAMs for that airfield.



MET'MAP, your aeronautical weather chart ! - Copyright ORBIFLY December 2007 - Disclaimer

ORBIFLY MET'MAP TEAM :

Programming & Development : Alexandra Zaïnal
Concept & Development : Baudouin d'Aumeries
Co-Development & Prog : Marc-Olivier Méhu
Technical & hardware support : Manuel Goepfert

Contact : metmap@orbifly.com




SOURCES & CREDITS :

   NOAA